Lees Cross Roads, Pennsylvania
Current Conditions -  °F | °C
As of 10:53 AM on Friday 19 Dec 2014 (Local Time) from KRYT Reporting Station
Overcast Overcast  
Wind Chill: 28°   Ceiling: 2600
Heat Index: 34°   Visibility: 10mi
Dew Point: 23°   Wind: 7mph
Humidity: 64%   Direction: NA
Pressure: 30.1"   Gusts: 17mph
Location:  40.0414°N, 77.4967°W
Report Text: KRYT 191553Z AUTO VRB06G15KT 10SM OVC026 01/M05 A3010 RMK AO2 SLP207 T00111050 $
Loading
Personal Weather Stations






























Interactive Weather Map New forecast layout! Learn more

10-Day Weather Forecast

Advertisements
Track Severe Weather on mobile